sensor_id;sensor_type;location;lat;lon;timestamp;temperature;humidity
65972;SHT31;52726;48.852;9.152;2024-03-23T00:52:36;9.58;77.44
65972;SHT31;52726;48.852;9.152;2024-03-23T00:55:01;9.50;77.53
65972;SHT31;52726;48.852;9.152;2024-03-23T00:57:27;9.43;77.69
65972;SHT31;52726;48.852;9.152;2024-03-23T00:59:52;9.52;77.21
65972;SHT31;52726;48.852;9.152;2024-03-23T01:02:17;9.75;76.24
65972;SHT31;52726;48.852;9.152;2024-03-23T01:04:43;10.01;75.38
65972;SHT31;52726;48.852;9.152;2024-03-23T01:07:09;10.16;75.32
65972;SHT31;52726;48.852;9.152;2024-03-23T01:09:34;10.28;74.91
65972;SHT31;52726;48.852;9.152;2024-03-23T01:11:59;10.30;74.95
65972;SHT31;52726;48.852;9.152;2024-03-23T01:14:25;10.33;74.83
65972;SHT31;52726;48.852;9.152;2024-03-23T01:16:50;10.43;75.12
65972;SHT31;52726;48.852;9.152;2024-03-23T01:19:15;10.64;74.00
65972;SHT31;52726;48.852;9.152;2024-03-23T01:21:40;10.84;73.00
65972;SHT31;52726;48.852;9.152;2024-03-23T01:24:06;10.91;72.87
65972;SHT31;52726;48.852;9.152;2024-03-23T01:26:31;10.92;73.09
65972;SHT31;52726;48.852;9.152;2024-03-23T01:28:57;11.08;72.34
65972;SHT31;52726;48.852;9.152;2024-03-23T01:31:22;11.18;72.11
65972;SHT31;52726;48.852;9.152;2024-03-23T01:33:47;11.22;72.22
65972;SHT31;52726;48.852;9.152;2024-03-23T01:36:13;11.32;71.83
65972;SHT31;52726;48.852;9.152;2024-03-23T01:38:38;11.35;71.86
65972;SHT31;52726;48.852;9.152;2024-03-23T01:41:03;11.42;71.60
65972;SHT31;52726;48.852;9.152;2024-03-23T01:43:29;11.37;71.78
65972;SHT31;52726;48.852;9.152;2024-03-23T01:45:54;11.40;71.88
65972;SHT31;52726;48.852;9.152;2024-03-23T01:48:20;11.56;71.63
65972;SHT31;52726;48.852;9.152;2024-03-23T01:50:46;11.63;71.44
65972;SHT31;52726;48.852;9.152;2024-03-23T01:53:14;11.84;70.95
65972;SHT31;52726;48.852;9.152;2024-03-23T01:55:42;11.94;70.61
65972;SHT31;52726;48.852;9.152;2024-03-23T01:58:07;11.94;70.85
65972;SHT31;52726;48.852;9.152;2024-03-23T02:00:33;12.02;70.69
65972;SHT31;52726;48.852;9.152;2024-03-23T02:02:58;12.05;70.56
65972;SHT31;52726;48.852;9.152;2024-03-23T02:05:23;11.95;70.95
65972;SHT31;52726;48.852;9.152;2024-03-23T02:07:49;11.88;71.21
65972;SHT31;52726;48.852;9.152;2024-03-23T02:10:15;11.94;71.11
65972;SHT31;52726;48.852;9.152;2024-03-23T02:12:41;11.90;71.28
65972;SHT31;52726;48.852;9.152;2024-03-23T02:15:06;11.85;71.54
65972;SHT31;52726;48.852;9.152;2024-03-23T02:17:33;11.90;71.42
65972;SHT31;52726;48.852;9.152;2024-03-23T02:19:59;11.94;71.42
65972;SHT31;52726;48.852;9.152;2024-03-23T02:22:25;11.87;71.28
65972;SHT31;52726;48.852;9.152;2024-03-23T02:24:50;11.84;71.56
65972;SHT31;52726;48.852;9.152;2024-03-23T02:27:15;11.77;71.72
65972;SHT31;52726;48.852;9.152;2024-03-23T02:29:41;11.78;71.69
65972;SHT31;52726;48.852;9.152;2024-03-23T02:32:06;11.74;71.93
65972;SHT31;52726;48.852;9.152;2024-03-23T02:34:34;11.71;72.08
65972;SHT31;52726;48.852;9.152;2024-03-23T02:36:59;11.63;72.34
65972;SHT31;52726;48.852;9.152;2024-03-23T02:39:25;11.59;72.40
65972;SHT31;52726;48.852;9.152;2024-03-23T02:41:50;11.50;72.70
65972;SHT31;52726;48.852;9.152;2024-03-23T02:44:15;11.47;72.88
65972;SHT31;52726;48.852;9.152;2024-03-23T02:46:41;11.44;72.84
65972;SHT31;52726;48.852;9.152;2024-03-23T02:49:06;11.37;73.07
65972;SHT31;52726;48.852;9.152;2024-03-23T02:51:32;11.36;73.22
65972;SHT31;52726;48.852;9.152;2024-03-23T02:53:57;11.32;73.54
65972;SHT31;52726;48.852;9.152;2024-03-23T02:56:23;11.29;73.52
65972;SHT31;52726;48.852;9.152;2024-03-23T02:58:49;11.22;73.68
65972;SHT31;52726;48.852;9.152;2024-03-23T03:01:14;11.12;74.13
65972;SHT31;52726;48.852;9.152;2024-03-23T03:03:40;11.09;74.19
65972;SHT31;52726;48.852;9.152;2024-03-23T03:06:05;11.08;74.42
65972;SHT31;52726;48.852;9.152;2024-03-23T03:08:30;11.02;74.37
65972;SHT31;52726;48.852;9.152;2024-03-23T03:10:56;10.92;74.95
65972;SHT31;52726;48.852;9.152;2024-03-23T03:13:21;10.85;75.54
65972;SHT31;52726;48.852;9.152;2024-03-23T03:15:47;10.88;75.22
65972;SHT31;52726;48.852;9.152;2024-03-23T03:18:12;10.92;75.09
65972;SHT31;52726;48.852;9.152;2024-03-23T03:20:40;10.92;75.12
65972;SHT31;52726;48.852;9.152;2024-03-23T03:23:06;10.87;75.37
65972;SHT31;52726;48.852;9.152;2024-03-23T03:25:32;10.81;75.72
65972;SHT31;52726;48.852;9.152;2024-03-23T03:27:57;10.65;76.01
65972;SHT31;52726;48.852;9.152;2024-03-23T03:30:22;10.46;76.40
65972;SHT31;52726;48.852;9.152;2024-03-23T03:32:49;10.26;77.06
65972;SHT31;52726;48.852;9.152;2024-03-23T03:35:14;10.12;77.49
65972;SHT31;52726;48.852;9.152;2024-03-23T03:37:40;10.03;78.16
65972;SHT31;52726;48.852;9.152;2024-03-23T03:40:05;9.91;78.48
65972;SHT31;52726;48.852;9.152;2024-03-23T03:42:33;9.77;79.00
65972;SHT31;52726;48.852;9.152;2024-03-23T03:44:59;9.67;79.29
65972;SHT31;52726;48.852;9.152;2024-03-23T03:47:24;9.57;79.44
65972;SHT31;52726;48.852;9.152;2024-03-23T03:49:49;9.57;79.85
65972;SHT31;52726;48.852;9.152;2024-03-23T03:52:15;9.57;80.51
65972;SHT31;52726;48.852;9.152;2024-03-23T03:54:40;9.51;80.00
65972;SHT31;52726;48.852;9.152;2024-03-23T03:57:05;9.38;80.47
65972;SHT31;52726;48.852;9.152;2024-03-23T03:59:31;9.26;80.79
65972;SHT31;52726;48.852;9.152;2024-03-23T04:01:56;9.12;81.22
65972;SHT31;52726;48.852;9.152;2024-03-23T04:04:21;9.03;81.65
65972;SHT31;52726;48.852;9.152;2024-03-23T04:06:47;8.95;81.93
65972;SHT31;52726;48.852;9.152;2024-03-23T04:09:12;8.93;82.05
65972;SHT31;52726;48.852;9.152;2024-03-23T04:11:38;8.88;82.02
65972;SHT31;52726;48.852;9.152;2024-03-23T04:14:03;8.88;82.19
65972;SHT31;52726;48.852;9.152;2024-03-23T04:16:29;8.79;82.68
65972;SHT31;52726;48.852;9.152;2024-03-23T04:18:55;8.64;83.28
65972;SHT31;52726;48.852;9.152;2024-03-23T04:21:21;8.62;83.81
65972;SHT31;52726;48.852;9.152;2024-03-23T04:23:47;8.71;84.03
65972;SHT31;52726;48.852;9.152;2024-03-23T04:26:13;8.92;84.73
65972;SHT31;52726;48.852;9.152;2024-03-23T04:28:39;9.18;85.67
65972;SHT31;52726;48.852;9.152;2024-03-23T04:31:04;9.26;87.91
65972;SHT31;52726;48.852;9.152;2024-03-23T04:33:30;9.24;89.66
65972;SHT31;52726;48.852;9.152;2024-03-23T04:35:55;9.18;90.44
65972;SHT31;52726;48.852;9.152;2024-03-23T04:38:21;9.15;91.12
65972;SHT31;52726;48.852;9.152;2024-03-23T04:40:56;9.12;91.69
65972;SHT31;52726;48.852;9.152;2024-03-23T04:43:22;9.12;92.13
65972;SHT31;52726;48.852;9.152;2024-03-23T04:45:48;9.15;92.63
65972;SHT31;52726;48.852;9.152;2024-03-23T04:48:13;9.22;93.31
65972;SHT31;52726;48.852;9.152;2024-03-23T04:50:38;9.23;93.64
65972;SHT31;52726;48.852;9.152;2024-03-23T04:53:04;9.34;94.09
65972;SHT31;52726;48.852;9.152;2024-03-23T04:55:29;9.40;94.35
65972;SHT31;52726;48.852;9.152;2024-03-23T04:57:56;9.47;94.19
65972;SHT31;52726;48.852;9.152;2024-03-23T05:00:21;9.50;94.21
65972;SHT31;52726;48.852;9.152;2024-03-23T05:02:46;9.52;93.68
65972;SHT31;52726;48.852;9.152;2024-03-23T05:05:12;9.55;93.42
65972;SHT31;52726;48.852;9.152;2024-03-23T05:07:37;9.54;92.10
65972;SHT31;52726;48.852;9.152;2024-03-23T05:10:03;9.51;92.17
65972;SHT31;52726;48.852;9.152;2024-03-23T05:12:28;9.50;91.65
65972;SHT31;52726;48.852;9.152;2024-03-23T05:14:53;9.48;91.72
65972;SHT31;52726;48.852;9.152;2024-03-23T05:17:19;9.44;91.88
65972;SHT31;52726;48.852;9.152;2024-03-23T05:19:44;9.38;91.90
65972;SHT31;52726;48.852;9.152;2024-03-23T05:22:09;9.41;91.83
65972;SHT31;52726;48.852;9.152;2024-03-23T05:24:35;9.41;91.67
65972;SHT31;52726;48.852;9.152;2024-03-23T05:27:00;9.41;91.32
65972;SHT31;52726;48.852;9.152;2024-03-23T05:29:26;9.46;91.46
65972;SHT31;52726;48.852;9.152;2024-03-23T05:31:51;9.38;91.99
65972;SHT31;52726;48.852;9.152;2024-03-23T05:34:17;9.36;92.05
65972;SHT31;52726;48.852;9.152;2024-03-23T05:36:43;9.36;92.25
65972;SHT31;52726;48.852;9.152;2024-03-23T05:39:08;9.33;92.09
65972;SHT31;52726;48.852;9.152;2024-03-23T05:41:33;9.36;91.16
65972;SHT31;52726;48.852;9.152;2024-03-23T05:44:01;9.33;90.50
65972;SHT31;52726;48.852;9.152;2024-03-23T05:46:26;9.26;89.16
65972;SHT31;52726;48.852;9.152;2024-03-23T05:48:51;9.15;89.46
65972;SHT31;52726;48.852;9.152;2024-03-23T05:51:17;9.06;88.80
65972;SHT31;52726;48.852;9.152;2024-03-23T05:53:42;8.99;88.34
65972;SHT31;52726;48.852;9.152;2024-03-23T05:56:07;9.00;88.02
65972;SHT31;52726;48.852;9.152;2024-03-23T05:58:33;9.00;88.00
65972;SHT31;52726;48.852;9.152;2024-03-23T06:01:02;9.00;87.57
65972;SHT31;52726;48.852;9.152;2024-03-23T06:03:28;8.99;88.16
65972;SHT31;52726;48.852;9.152;2024-03-23T06:05:54;8.93;88.39
65972;SHT31;52726;48.852;9.152;2024-03-23T06:08:19;8.89;87.61
65972;SHT31;52726;48.852;9.152;2024-03-23T06:10:48;8.88;87.34
65972;SHT31;52726;48.852;9.152;2024-03-23T06:13:13;8.85;87.69
65972;SHT31;52726;48.852;9.152;2024-03-23T06:15:39;8.81;88.23
65972;SHT31;52726;48.852;9.152;2024-03-23T06:18:05;8.75;89.27
65972;SHT31;52726;48.852;9.152;2024-03-23T06:20:30;8.69;89.25
65972;SHT31;52726;48.852;9.152;2024-03-23T06:22:56;8.68;88.31
65972;SHT31;52726;48.852;9.152;2024-03-23T06:25:21;8.67;88.41
65972;SHT31;52726;48.852;9.152;2024-03-23T06:27:47;8.64;88.18
65972;SHT31;52726;48.852;9.152;2024-03-23T06:30:12;8.62;87.78
65972;SHT31;52726;48.852;9.152;2024-03-23T06:32:38;8.60;88.20
65972;SHT31;52726;48.852;9.152;2024-03-23T06:35:03;8.60;88.46
65972;SHT31;52726;48.852;9.152;2024-03-23T06:37:33;8.57;87.62
65972;SHT31;52726;48.852;9.152;2024-03-23T06:39:59;8.50;87.77
65972;SHT31;52726;48.852;9.152;2024-03-23T06:42:24;8.50;86.35
65972;SHT31;52726;48.852;9.152;2024-03-23T06:44:49;8.44;86.85
65972;SHT31;52726;48.852;9.152;2024-03-23T06:47:15;8.44;86.75
65972;SHT31;52726;48.852;9.152;2024-03-23T06:49:40;8.41;86.79
65972;SHT31;52726;48.852;9.152;2024-03-23T06:52:05;8.41;86.86
65972;SHT31;52726;48.852;9.152;2024-03-23T06:54:31;8.43;86.46
65972;SHT31;52726;48.852;9.152;2024-03-23T06:56:56;8.37;85.73
65972;SHT31;52726;48.852;9.152;2024-03-23T06:59:21;8.33;85.78
65972;SHT31;52726;48.852;9.152;2024-03-23T07:01:47;8.26;86.00
65972;SHT31;52726;48.852;9.152;2024-03-23T07:04:12;8.27;85.95
65972;SHT31;52726;48.852;9.152;2024-03-23T07:06:44;8.36;86.12
65972;SHT31;52726;48.852;9.152;2024-03-23T07:09:09;8.40;86.65
65972;SHT31;52726;48.852;9.152;2024-03-23T07:11:35;8.36;86.19
65972;SHT31;52726;48.852;9.152;2024-03-23T07:14:00;8.34;86.55
65972;SHT31;52726;48.852;9.152;2024-03-23T07:16:29;8.33;86.42
65972;SHT31;52726;48.852;9.152;2024-03-23T07:18:55;8.34;85.86
65972;SHT31;52726;48.852;9.152;2024-03-23T07:21:21;8.32;86.07
65972;SHT31;52726;48.852;9.152;2024-03-23T07:23:46;8.24;85.15
65972;SHT31;52726;48.852;9.152;2024-03-23T07:26:12;8.26;85.85
65972;SHT31;52726;48.852;9.152;2024-03-23T07:28:37;8.26;85.92
65972;SHT31;52726;48.852;9.152;2024-03-23T07:31:09;8.29;86.10
65972;SHT31;52726;48.852;9.152;2024-03-23T07:33:35;8.26;84.94
65972;SHT31;52726;48.852;9.152;2024-03-23T07:36:01;8.33;84.95
65972;SHT31;52726;48.852;9.152;2024-03-23T07:38:28;8.33;85.09
65972;SHT31;52726;48.852;9.152;2024-03-23T07:41:11;8.32;85.13
65972;SHT31;52726;48.852;9.152;2024-03-23T07:43:38;8.27;84.62
65972;SHT31;52726;48.852;9.152;2024-03-23T07:46:04;8.19;84.61
65972;SHT31;52726;48.852;9.152;2024-03-23T07:48:30;8.20;85.01
65972;SHT31;52726;48.852;9.152;2024-03-23T07:51:17;8.14;84.95
65972;SHT31;52726;48.852;9.152;2024-03-23T07:53:44;8.03;85.18
65972;SHT31;52726;48.852;9.152;2024-03-23T07:56:14;7.99;86.03
65972;SHT31;52726;48.852;9.152;2024-03-23T07:58:47;7.95;86.80
65972;SHT31;52726;48.852;9.152;2024-03-23T08:01:14;7.89;87.90
65972;SHT31;52726;48.852;9.152;2024-03-23T08:03:42;7.66;89.01
65972;SHT31;52726;48.852;9.152;2024-03-23T08:08:41;8.47;87.15
65972;SHT31;52726;48.852;9.152;2024-03-23T08:11:06;8.62;85.74
65972;SHT31;52726;48.852;9.152;2024-03-23T08:13:33;8.14;84.95
65972;SHT31;52726;48.852;9.152;2024-03-23T08:16:02;7.96;86.52
65972;SHT31;52726;48.852;9.152;2024-03-23T08:18:28;8.06;85.53
65972;SHT31;52726;48.852;9.152;2024-03-23T08:23:26;8.00;85.04
65972;SHT31;52726;48.852;9.152;2024-03-23T08:25:52;8.36;82.65
65972;SHT31;52726;48.852;9.152;2024-03-23T08:28:22;8.14;84.00
65972;SHT31;52726;48.852;9.152;2024-03-23T08:30:47;8.14;84.12
65972;SHT31;52726;48.852;9.152;2024-03-23T08:33:14;7.87;83.12
65972;SHT31;52726;48.852;9.152;2024-03-23T08:35:39;7.74;84.59
65972;SHT31;52726;48.852;9.152;2024-03-23T08:38:05;8.27;82.74
65972;SHT31;52726;48.852;9.152;2024-03-23T08:40:30;8.14;83.17
65972;SHT31;52726;48.852;9.152;2024-03-23T08:42:56;8.03;83.00
65972;SHT31;52726;48.852;9.152;2024-03-23T08:45:21;7.96;80.84
65972;SHT31;52726;48.852;9.152;2024-03-23T08:47:46;7.90;82.19
65972;SHT31;52726;48.852;9.152;2024-03-23T08:50:12;7.74;81.49
65972;SHT31;52726;48.852;9.152;2024-03-23T08:52:37;7.57;83.37
65972;SHT31;52726;48.852;9.152;2024-03-23T08:55:03;7.37;83.46
65972;SHT31;52726;48.852;9.152;2024-03-23T08:57:29;7.31;85.18
65972;SHT31;52726;48.852;9.152;2024-03-23T08:59:54;7.27;86.01
65972;SHT31;52726;48.852;9.152;2024-03-23T09:02:20;7.21;85.73
65972;SHT31;52726;48.852;9.152;2024-03-23T09:04:45;7.35;85.27
65972;SHT31;52726;48.852;9.152;2024-03-23T09:07:11;7.69;86.59
65972;SHT31;52726;48.852;9.152;2024-03-23T09:09:38;8.00;83.77
65972;SHT31;52726;48.852;9.152;2024-03-23T09:12:04;8.17;83.62
65972;SHT31;52726;48.852;9.152;2024-03-23T09:14:29;8.86;79.45
65972;SHT31;52726;48.852;9.152;2024-03-23T09:16:54;9.08;79.58
65972;SHT31;52726;48.852;9.152;2024-03-23T09:19:20;9.12;75.92
65972;SHT31;52726;48.852;9.152;2024-03-23T09:21:45;8.65;78.97
65972;SHT31;52726;48.852;9.152;2024-03-23T09:24:11;9.48;75.57
65972;SHT31;52726;48.852;9.152;2024-03-23T09:26:36;9.08;76.72
65972;SHT31;52726;48.852;9.152;2024-03-23T09:29:01;9.06;78.83
65972;SHT31;52726;48.852;9.152;2024-03-23T09:31:27;9.10;77.27
65972;SHT31;52726;48.852;9.152;2024-03-23T09:33:52;8.67;77.80
65972;SHT31;52726;48.852;9.152;2024-03-23T09:36:18;8.26;78.27
65972;SHT31;52726;48.852;9.152;2024-03-23T09:38:43;8.13;79.31
65972;SHT31;52726;48.852;9.152;2024-03-23T09:41:09;8.03;79.47
65972;SHT31;52726;48.852;9.152;2024-03-23T09:43:35;7.95;79.77
65972;SHT31;52726;48.852;9.152;2024-03-23T09:46:03;7.99;79.45
65972;SHT31;52726;48.852;9.152;2024-03-23T09:48:29;8.26;77.05
65972;SHT31;52726;48.852;9.152;2024-03-23T09:50:55;8.09;77.37
65972;SHT31;52726;48.852;9.152;2024-03-23T09:53:20;7.92;76.97
65972;SHT31;52726;48.852;9.152;2024-03-23T09:55:47;7.87;78.02
65972;SHT31;52726;48.852;9.152;2024-03-23T09:58:16;7.93;77.95
65972;SHT31;52726;48.852;9.152;2024-03-23T10:00:42;8.33;76.54
65972;SHT31;52726;48.852;9.152;2024-03-23T10:03:08;8.43;77.13
65972;SHT31;52726;48.852;9.152;2024-03-23T10:05:35;8.34;77.56
65972;SHT31;52726;48.852;9.152;2024-03-23T10:08:17;8.33;77.58
65972;SHT31;52726;48.852;9.152;2024-03-23T10:10:43;8.62;76.32
65972;SHT31;52726;48.852;9.152;2024-03-23T10:13:09;9.54;75.53
65972;SHT31;52726;48.852;9.152;2024-03-23T10:15:35;9.79;73.85
65972;SHT31;52726;48.852;9.152;2024-03-23T10:18:18;9.65;72.51
65972;SHT31;52726;48.852;9.152;2024-03-23T10:20:43;9.37;74.65
65972;SHT31;52726;48.852;9.152;2024-03-23T10:23:18;9.16;75.40
65972;SHT31;52726;48.852;9.152;2024-03-23T10:25:44;9.08;75.37
65972;SHT31;52726;48.852;9.152;2024-03-23T10:28:10;8.96;73.66
65972;SHT31;52726;48.852;9.152;2024-03-23T10:30:36;8.93;74.37
65972;SHT31;52726;48.852;9.152;2024-03-23T10:33:09;8.81;73.88
65972;SHT31;52726;48.852;9.152;2024-03-23T10:35:35;8.65;73.33
65972;SHT31;52726;48.852;9.152;2024-03-23T10:38:04;8.54;74.05
65972;SHT31;52726;48.852;9.152;2024-03-23T10:40:29;8.44;73.26
65972;SHT31;52726;48.852;9.152;2024-03-23T10:42:57;8.38;74.60
65972;SHT31;52726;48.852;9.152;2024-03-23T10:45:23;8.32;74.50
65972;SHT31;52726;48.852;9.152;2024-03-23T10:47:49;8.06;76.51
65972;SHT31;52726;48.852;9.152;2024-03-23T10:50:14;6.67;81.97
65972;SHT31;52726;48.852;9.152;2024-03-23T10:52:41;5.94;84.02
65972;SHT31;52726;48.852;9.152;2024-03-23T10:55:10;5.55;85.32
65972;SHT31;52726;48.852;9.152;2024-03-23T10:57:51;5.34;88.22
65972;SHT31;52726;48.852;9.152;2024-03-23T11:00:18;5.13;89.74
65972;SHT31;52726;48.852;9.152;2024-03-23T11:02:43;4.90;89.98
65972;SHT31;52726;48.852;9.152;2024-03-23T11:07:50;4.72;90.96
65972;SHT31;52726;48.852;9.152;2024-03-23T11:10:27;4.80;90.91
65972;SHT31;52726;48.852;9.152;2024-03-23T11:12:54;5.08;91.38
65972;SHT31;52726;48.852;9.152;2024-03-23T11:15:19;5.39;91.18
65972;SHT31;52726;48.852;9.152;2024-03-23T11:18:07;5.66;90.52
65972;SHT31;52726;48.852;9.152;2024-03-23T11:20:36;6.06;90.77
65972;SHT31;52726;48.852;9.152;2024-03-23T11:23:02;6.34;90.06
65972;SHT31;52726;48.852;9.152;2024-03-23T11:25:28;6.68;90.48
65972;SHT31;52726;48.852;9.152;2024-03-23T11:27:58;6.76;88.85
65972;SHT31;52726;48.852;9.152;2024-03-23T11:30:34;7.00;88.54
65972;SHT31;52726;48.852;9.152;2024-03-23T11:33:02;7.19;88.92
65972;SHT31;52726;48.852;9.152;2024-03-23T11:35:28;7.44;88.60
65972;SHT31;52726;48.852;9.152;2024-03-23T11:38:09;7.71;87.69
65972;SHT31;52726;48.852;9.152;2024-03-23T11:40:39;8.02;88.18
65972;SHT31;52726;48.852;9.152;2024-03-23T11:43:07;7.97;86.19
65972;SHT31;52726;48.852;9.152;2024-03-23T11:45:51;8.07;85.65
65972;SHT31;52726;48.852;9.152;2024-03-23T11:48:19;7.89;84.55
65972;SHT31;52726;48.852;9.152;2024-03-23T11:50:46;7.92;83.24
65972;SHT31;52726;48.852;9.152;2024-03-23T11:53:22;7.89;81.10
65972;SHT31;52726;48.852;9.152;2024-03-23T11:56:00;8.02;83.70
65972;SHT31;52726;48.852;9.152;2024-03-23T11:58:27;8.13;84.11
65972;SHT31;52726;48.852;9.152;2024-03-23T12:00:55;8.12;82.66
65972;SHT31;52726;48.852;9.152;2024-03-23T12:03:21;8.02;81.82
65972;SHT31;52726;48.852;9.152;2024-03-23T12:05:58;8.07;81.88
65972;SHT31;52726;48.852;9.152;2024-03-23T12:08:30;7.89;79.09
65972;SHT31;52726;48.852;9.152;2024-03-23T12:11:11;7.71;76.56
65972;SHT31;52726;48.852;9.152;2024-03-23T12:13:37;7.59;73.72
65972;SHT31;52726;48.852;9.152;2024-03-23T12:18:41;7.99;74.14
65972;SHT31;52726;48.852;9.152;2024-03-23T12:21:06;8.30;74.83
65972;SHT31;52726;48.852;9.152;2024-03-23T12:23:32;8.34;72.09
65972;SHT31;52726;48.852;9.152;2024-03-23T12:25:58;8.40;73.14
65972;SHT31;52726;48.852;9.152;2024-03-23T12:28:23;8.43;71.87
65972;SHT31;52726;48.852;9.152;2024-03-23T12:30:49;8.52;71.93
65972;SHT31;52726;48.852;9.152;2024-03-23T12:33:14;8.65;70.39
65972;SHT31;52726;48.852;9.152;2024-03-23T12:35:39;8.69;70.95
65972;SHT31;52726;48.852;9.152;2024-03-23T12:38:04;8.75;71.99
65972;SHT31;52726;48.852;9.152;2024-03-23T12:40:30;8.68;70.90
65972;SHT31;52726;48.852;9.152;2024-03-23T12:42:56;8.52;71.02
65972;SHT31;52726;48.852;9.152;2024-03-23T12:45:22;8.47;69.13
65972;SHT31;52726;48.852;9.152;2024-03-23T12:47:47;8.41;70.41
65972;SHT31;52726;48.852;9.152;2024-03-23T12:50:12;8.40;70.08
65972;SHT31;52726;48.852;9.152;2024-03-23T12:52:38;8.37;71.10
65972;SHT31;52726;48.852;9.152;2024-03-23T12:55:04;8.52;72.11
65972;SHT31;52726;48.852;9.152;2024-03-23T12:57:32;8.98;73.40
65972;SHT31;52726;48.852;9.152;2024-03-23T12:59:58;9.29;72.38
65972;SHT31;52726;48.852;9.152;2024-03-23T13:02:24;9.62;72.21
65972;SHT31;52726;48.852;9.152;2024-03-23T13:04:50;9.95;72.52
65972;SHT31;52726;48.852;9.152;2024-03-23T13:07:19;10.12;69.86
65972;SHT31;52726;48.852;9.152;2024-03-23T13:09:45;10.08;69.00
65972;SHT31;52726;48.852;9.152;2024-03-23T13:12:11;9.77;69.10
65972;SHT31;52726;48.852;9.152;2024-03-23T13:14:39;9.68;69.95
65972;SHT31;52726;48.852;9.152;2024-03-23T13:17:05;9.55;66.18
65972;SHT31;52726;48.852;9.152;2024-03-23T13:19:31;9.41;68.49
65972;SHT31;52726;48.852;9.152;2024-03-23T13:21:57;9.40;67.55
65972;SHT31;52726;48.852;9.152;2024-03-23T13:24:24;9.29;65.54
65972;SHT31;52726;48.852;9.152;2024-03-23T13:26:54;9.54;66.53
65972;SHT31;52726;48.852;9.152;2024-03-23T13:29:20;9.61;67.36
65972;SHT31;52726;48.852;9.152;2024-03-23T13:35:07;10.15;64.69
65972;SHT31;52726;48.852;9.152;2024-03-23T13:37:33;10.37;66.03
65972;SHT31;52726;48.852;9.152;2024-03-23T13:40:00;10.43;62.03
65972;SHT31;52726;48.852;9.152;2024-03-23T13:42:25;10.50;62.70
65972;SHT31;52726;48.852;9.152;2024-03-23T13:44:51;10.78;62.95
65972;SHT31;52726;48.852;9.152;2024-03-23T13:47:16;10.53;60.16
65972;SHT31;52726;48.852;9.152;2024-03-23T13:49:42;10.36;63.77
65972;SHT31;52726;48.852;9.152;2024-03-23T13:52:07;9.43;65.56
65972;SHT31;52726;48.852;9.152;2024-03-23T13:54:33;7.90;72.59
65972;SHT31;52726;48.852;9.152;2024-03-23T13:56:58;6.86;78.29
65972;SHT31;52726;48.852;9.152;2024-03-23T13:59:25;6.17;81.74
65972;SHT31;52726;48.852;9.152;2024-03-23T14:01:53;5.77;85.13
65972;SHT31;52726;48.852;9.152;2024-03-23T14:04:18;5.51;84.33
65972;SHT31;52726;48.852;9.152;2024-03-23T14:06:47;5.38;86.20
65972;SHT31;52726;48.852;9.152;2024-03-23T14:09:13;5.17;87.19
65972;SHT31;52726;48.852;9.152;2024-03-23T14:11:40;5.07;87.89
65972;SHT31;52726;48.852;9.152;2024-03-23T14:14:06;5.08;87.99
65972;SHT31;52726;48.852;9.152;2024-03-23T14:16:32;5.13;86.17
65972;SHT31;52726;48.852;9.152;2024-03-23T14:18:57;5.26;87.86
65972;SHT31;52726;48.852;9.152;2024-03-23T14:21:23;5.24;88.41
65972;SHT31;52726;48.852;9.152;2024-03-23T14:23:49;5.06;89.28
65972;SHT31;52726;48.852;9.152;2024-03-23T14:26:14;4.90;89.12
65972;SHT31;52726;48.852;9.152;2024-03-23T14:28:39;5.08;90.16
65972;SHT31;52726;48.852;9.152;2024-03-23T14:31:05;5.66;91.13
65972;SHT31;52726;48.852;9.152;2024-03-23T14:33:38;6.25;91.64
65972;SHT31;52726;48.852;9.152;2024-03-23T14:36:06;6.71;90.82
65972;SHT31;52726;48.852;9.152;2024-03-23T14:38:31;6.88;89.69
65972;SHT31;52726;48.852;9.152;2024-03-23T14:41:00;7.01;88.71
65972;SHT31;52726;48.852;9.152;2024-03-23T14:43:27;7.27;88.84
65972;SHT31;52726;48.852;9.152;2024-03-23T14:46:13;7.43;85.89
65972;SHT31;52726;48.852;9.152;2024-03-23T14:48:39;7.58;85.72
65972;SHT31;52726;48.852;9.152;2024-03-23T14:51:06;7.58;85.05
65972;SHT31;52726;48.852;9.152;2024-03-23T14:53:33;7.31;83.72
65972;SHT31;52726;48.852;9.152;2024-03-23T14:56:00;7.14;84.76
65972;SHT31;52726;48.852;9.152;2024-03-23T14:58:26;7.06;85.11
65972;SHT31;52726;48.852;9.152;2024-03-23T15:00:52;7.06;84.95
65972;SHT31;52726;48.852;9.152;2024-03-23T15:03:18;7.06;84.41
65972;SHT31;52726;48.852;9.152;2024-03-23T15:05:57;7.04;84.35
65972;SHT31;52726;48.852;9.152;2024-03-23T15:08:22;7.19;82.10
65972;SHT31;52726;48.852;9.152;2024-03-23T15:10:48;7.21;79.53
65972;SHT31;52726;48.852;9.152;2024-03-23T15:13:14;7.28;79.70
65972;SHT31;52726;48.852;9.152;2024-03-23T15:15:43;7.28;79.32
65972;SHT31;52726;48.852;9.152;2024-03-23T15:18:13;7.35;80.39
65972;SHT31;52726;48.852;9.152;2024-03-23T15:20:40;7.27;79.85
65972;SHT31;52726;48.852;9.152;2024-03-23T15:23:05;7.47;81.05
65972;SHT31;52726;48.852;9.152;2024-03-23T15:25:31;7.55;80.45
65972;SHT31;52726;48.852;9.152;2024-03-23T15:27:57;7.48;79.78
65972;SHT31;52726;48.852;9.152;2024-03-23T15:30:27;7.61;79.03
65972;SHT31;52726;48.852;9.152;2024-03-23T15:32:53;7.61;78.34
65972;SHT31;52726;48.852;9.152;2024-03-23T15:35:18;7.72;78.82
65972;SHT31;52726;48.852;9.152;2024-03-23T15:37:46;7.76;77.49
65972;SHT31;52726;48.852;9.152;2024-03-23T15:40:11;7.83;78.38
65972;SHT31;52726;48.852;9.152;2024-03-23T15:42:38;7.90;78.08
65972;SHT31;52726;48.852;9.152;2024-03-23T15:45:06;8.09;77.38
65972;SHT31;52726;48.852;9.152;2024-03-23T15:47:32;8.17;78.99
65972;SHT31;52726;48.852;9.152;2024-03-23T15:49:57;8.17;77.96
65972;SHT31;52726;48.852;9.152;2024-03-23T15:52:23;7.89;77.14
65972;SHT31;52726;48.852;9.152;2024-03-23T15:54:48;7.89;77.17
65972;SHT31;52726;48.852;9.152;2024-03-23T15:57:13;8.12;78.33
65972;SHT31;52726;48.852;9.152;2024-03-23T15:59:40;8.19;75.59
65972;SHT31;52726;48.852;9.152;2024-03-23T16:02:05;7.96;75.00
65972;SHT31;52726;48.852;9.152;2024-03-23T16:04:31;7.93;75.23
65972;SHT31;52726;48.852;9.152;2024-03-23T16:06:57;7.97;75.74
65972;SHT31;52726;48.852;9.152;2024-03-23T16:09:22;7.87;75.04
65972;SHT31;52726;48.852;9.152;2024-03-23T16:11:48;7.71;74.83
65972;SHT31;52726;48.852;9.152;2024-03-23T16:14:13;7.57;75.82
65972;SHT31;52726;48.852;9.152;2024-03-23T16:16:38;7.47;76.48
65972;SHT31;52726;48.852;9.152;2024-03-23T16:19:04;7.41;76.81
65972;SHT31;52726;48.852;9.152;2024-03-23T16:21:29;7.24;77.33
65972;SHT31;52726;48.852;9.152;2024-03-23T16:23:54;7.19;78.49
65972;SHT31;52726;48.852;9.152;2024-03-23T16:26:20;7.06;77.30
65972;SHT31;52726;48.852;9.152;2024-03-23T16:28:45;7.03;77.22
65972;SHT31;52726;48.852;9.152;2024-03-23T16:31:13;6.97;76.82
65972;SHT31;52726;48.852;9.152;2024-03-23T16:33:38;6.95;75.48
65972;SHT31;52726;48.852;9.152;2024-03-23T16:36:05;6.93;76.26
65972;SHT31;52726;48.852;9.152;2024-03-23T16:38:32;6.95;75.57
65972;SHT31;52726;48.852;9.152;2024-03-23T16:41:11;6.92;76.89
65972;SHT31;52726;48.852;9.152;2024-03-23T16:43:42;6.23;79.85